createdAt,value
2022-11-18T00:00:23.885Z,13.88
2022-11-18T00:03:25.251Z,12.30
2022-11-18T00:06:28.922Z,13.07
2022-11-18T00:09:30.255Z,12.73
2022-11-18T00:12:31.591Z,15.25
2022-11-18T00:15:32.942Z,13.40
2022-11-18T00:18:35.145Z,14.52
2022-11-18T00:21:36.531Z,14.10
2022-11-18T00:24:37.948Z,16.08
2022-11-18T00:27:39.286Z,13.85
2022-11-18T00:30:40.779Z,14.93
2022-11-18T00:33:42.209Z,15.35
2022-11-18T00:36:44.579Z,13.38
2022-11-18T00:39:45.930Z,16.55
2022-11-18T00:42:47.303Z,14.35
2022-11-18T00:45:48.634Z,14.65
2022-11-18T00:48:50.018Z,12.70
2022-11-18T00:51:51.462Z,14.02
2022-11-18T00:54:52.783Z,12.07
2022-11-18T00:57:54.151Z,13.13
2022-11-18T01:00:55.975Z,14.65
2022-11-18T01:03:57.514Z,13.52
2022-11-18T01:06:58.938Z,13.52
2022-11-18T01:10:00.358Z,14.48
2022-11-18T01:13:01.733Z,16.40
2022-11-18T01:16:03.129Z,14.20
2022-11-18T01:19:04.492Z,14.15
2022-11-18T01:22:05.905Z,14.85
2022-11-18T01:25:07.642Z,13.75
2022-11-18T01:28:09.406Z,13.88
2022-11-18T01:31:13.751Z,13.68
2022-11-18T01:34:15.171Z,12.98
2022-11-18T01:37:16.543Z,12.77
2022-11-18T01:40:17.952Z,14.18
2022-11-18T01:43:21.734Z,13.23
2022-11-18T01:46:25.466Z,13.57
2022-11-18T01:49:27.691Z,14.27
2022-11-18T01:52:31.118Z,16.67
2022-11-18T01:58:40.058Z,15.15
2022-11-18T02:01:41.673Z,15.32
2022-11-18T02:04:48.731Z,15.27
2022-11-18T02:07:51.112Z,18.27
2022-11-18T02:10:52.558Z,16.08
2022-11-18T02:13:53.948Z,14.93
2022-11-18T02:17:14.068Z,16.42
2022-11-18T02:20:34.540Z,15.75
2022-11-18T02:24:01.793Z,13.50
2022-11-18T02:27:21.340Z,16.95
2022-11-18T02:30:23.195Z,16.42
2022-11-18T02:33:32.669Z,17.23
2022-11-18T02:37:05.271Z,17.83
2022-11-18T02:40:06.822Z,16.77
2022-11-18T02:43:20.127Z,17.13
2022-11-18T02:46:28.398Z,18.30
2022-11-18T02:49:36.207Z,19.52
2022-11-18T02:52:39.171Z,22.95
2022-11-18T02:55:42.575Z,19.60
2022-11-18T03:01:45.472Z,21.95
2022-11-18T03:04:49.456Z,21.13
2022-11-18T03:07:56.647Z,19.73
2022-11-18T03:11:15.672Z,23.58
2022-11-18T03:14:28.561Z,23.08
2022-11-18T03:17:57.585Z,22.03
2022-11-18T03:21:06.884Z,22.77
2022-11-18T03:24:24.705Z,23.30
2022-11-18T03:27:55.209Z,23.30
2022-11-18T03:31:07.753Z,21.50
2022-11-18T03:34:21.025Z,23.75
2022-11-18T03:37:24.622Z,19.45
2022-11-18T03:40:30.633Z,24.63
2022-11-18T03:43:37.183Z,22.60
2022-11-18T03:46:44.632Z,22.45
2022-11-18T03:49:52.761Z,25.33
2022-11-18T03:52:55.186Z,21.48
2022-11-18T03:56:05.178Z,21.90
2022-11-18T03:59:27.325Z,21.40
2022-11-18T04:02:30.495Z,23.40
2022-11-18T04:05:38.998Z,21.10
2022-11-18T04:08:43.563Z,21.65
2022-11-18T04:11:49.964Z,22.63
2022-11-18T04:14:51.371Z,22.90
2022-11-18T04:17:52.942Z,19.40
2022-11-18T04:20:54.563Z,22.70
2022-11-18T04:23:56.000Z,21.65
2022-11-18T04:26:57.395Z,24.05
2022-11-18T04:29:58.776Z,21.65
2022-11-18T04:33:00.170Z,19.63
2022-11-18T04:36:01.576Z,20.98
2022-11-18T04:39:03.389Z,20.33
2022-11-18T04:42:04.875Z,21.80
2022-11-18T04:45:07.250Z,20.33
2022-11-18T04:48:08.600Z,20.15
2022-11-18T04:51:10.030Z,22.20
2022-11-18T04:54:12.408Z,19.48
2022-11-18T04:57:14.109Z,20.33
2022-11-18T05:00:15.824Z,22.08
2022-11-18T05:03:17.186Z,20.73
2022-11-18T05:06:18.633Z,20.33
2022-11-18T05:09:20.566Z,19.63
2022-11-18T05:12:22.281Z,21.15
2022-11-18T05:15:23.613Z,20.27
2022-11-18T05:18:24.935Z,22.00
2022-11-18T05:21:26.249Z,22.08
2022-11-18T05:24:27.577Z,21.35
2022-11-18T05:27:29.009Z,24.27
2022-11-18T05:30:30.386Z,20.92
2022-11-18T05:33:31.745Z,23.20
2022-11-18T05:36:33.184Z,20.40
2022-11-18T05:39:34.900Z,21.10
2022-11-18T05:42:36.251Z,22.33
2022-11-18T05:45:40.726Z,20.80
2022-11-18T05:48:42.067Z,23.52
2022-11-18T05:51:43.414Z,21.83
2022-11-18T05:54:49.598Z,22.77
2022-11-18T05:57:51.030Z,22.63
2022-11-18T06:00:55.564Z,22.08
2022-11-18T06:03:57.530Z,22.88
2022-11-18T06:07:07.779Z,22.77
2022-11-18T06:10:15.548Z,25.02
2022-11-18T06:13:23.930Z,26.98
2022-11-18T06:16:29.019Z,24.33
2022-11-18T06:19:31.759Z,25.42
2022-11-18T06:22:34.885Z,24.00
2022-11-18T06:25:39.305Z,21.67
2022-11-18T06:28:41.873Z,24.42
2022-11-18T06:31:43.265Z,24.77
2022-11-18T06:34:44.617Z,25.45
2022-11-18T06:37:46.879Z,23.70
2022-11-18T06:40:48.193Z,25.70
2022-11-18T06:43:49.573Z,25.05
2022-11-18T06:46:51.026Z,24.88
2022-11-18T06:49:52.377Z,24.67
2022-11-18T06:52:53.715Z,25.88
2022-11-18T06:55:55.041Z,26.13
2022-11-18T06:58:58.345Z,25.38
2022-11-18T07:01:59.670Z,26.63
2022-11-18T07:05:01.007Z,25.85
2022-11-18T07:08:02.474Z,26.42
2022-11-18T07:11:06.001Z,26.50
2022-11-18T07:14:10.990Z,25.77
2022-11-18T07:17:12.622Z,23.80
2022-11-18T07:20:14.086Z,27.58
2022-11-18T07:23:15.483Z,25.83
2022-11-18T07:26:17.715Z,28.48
2022-11-18T07:29:19.375Z,27.92
2022-11-18T07:32:21.149Z,30.75
2022-11-18T07:35:22.511Z,27.50
2022-11-18T07:38:23.922Z,25.60
2022-11-18T07:41:28.151Z,25.77
2022-11-18T07:44:29.472Z,27.48
2022-11-18T07:47:33.948Z,27.17
2022-11-18T07:50:35.320Z,27.00
2022-11-18T07:53:37.092Z,26.80
2022-11-18T07:56:39.281Z,26.15
2022-11-18T07:59:40.652Z,27.42
2022-11-18T08:02:41.974Z,26.92
2022-11-18T08:05:43.371Z,30.00
2022-11-18T08:08:45.689Z,27.85
2022-11-18T08:11:47.096Z,25.95
2022-11-18T08:14:48.428Z,26.77
2022-11-18T08:17:49.956Z,22.35
2022-11-18T08:20:51.682Z,25.67
2022-11-18T08:23:55.825Z,25.85
2022-11-18T08:26:57.162Z,26.02
2022-11-18T08:29:58.540Z,25.73
2022-11-18T08:33:00.064Z,24.90
2022-11-18T08:36:15.770Z,24.95
2022-11-18T08:39:17.235Z,23.92
2022-11-18T08:42:18.746Z,23.60
2022-11-18T08:45:20.226Z,23.45
2022-11-18T08:48:21.587Z,22.42
2022-11-18T08:51:23.219Z,21.02
2022-11-18T08:54:24.576Z,22.38
2022-11-18T08:57:25.916Z,23.75
2022-11-18T09:00:27.317Z,20.05
2022-11-18T09:03:28.715Z,19.92
2022-11-18T09:06:30.445Z,22.13
2022-11-18T09:09:31.845Z,20.52
2022-11-18T09:12:33.213Z,20.48
2022-11-18T09:15:35.420Z,19.77
2022-11-18T09:18:37.082Z,20.40
2022-11-18T09:21:40.932Z,20.75
2022-11-18T09:24:42.526Z,19.33
2022-11-18T09:27:43.866Z,21.33
2022-11-18T09:30:45.249Z,20.05
2022-11-18T09:33:46.672Z,20.27
2022-11-18T09:36:48.211Z,20.63
2022-11-18T09:39:49.631Z,21.10
2022-11-18T09:43:08.788Z,18.48
2022-11-18T09:46:47.873Z,20.05
2022-11-18T09:49:49.628Z,21.63
2022-11-18T09:52:50.897Z,20.27
2022-11-18T09:55:52.786Z,19.45
2022-11-18T09:58:54.729Z,19.15
2022-11-18T10:02:16.992Z,20.90
2022-11-18T10:05:22.293Z,18.67
2022-11-18T10:09:20.150Z,19.08
2022-11-18T10:12:32.612Z,19.88
2022-11-18T10:15:42.230Z,19.50
2022-11-18T10:19:00.904Z,17.75
2022-11-18T10:22:24.979Z,16.15
2022-11-18T10:25:26.451Z,17.23
2022-11-18T10:28:30.261Z,15.38
2022-11-18T10:31:31.826Z,16.05
2022-11-18T10:34:35.199Z,13.98
2022-11-18T10:41:18.325Z,14.57
2022-11-18T10:44:28.420Z,14.85
2022-11-18T10:47:31.752Z,13.85
2022-11-18T10:53:36.971Z,14.93
2022-11-18T10:56:58.086Z,12.93
2022-11-18T10:59:59.863Z,12.82
2022-11-18T11:03:15.028Z,13.48
2022-11-18T11:06:30.039Z,16.15
2022-11-18T11:09:31.550Z,11.50
2022-11-18T11:12:38.834Z,11.45
2022-11-18T11:15:43.050Z,14.77
2022-11-18T11:18:48.406Z,18.98
2022-11-18T11:21:50.606Z,10.80
2022-11-18T11:24:51.974Z,12.63
2022-11-18T11:28:16.893Z,11.95
2022-11-18T11:31:39.365Z,7.68
2022-11-18T11:34:58.861Z,9.73
2022-11-18T11:38:15.802Z,8.77
2022-11-18T11:41:23.999Z,8.52
2022-11-18T11:44:56.274Z,10.38
2022-11-18T11:48:23.023Z,9.45
2022-11-18T11:51:40.058Z,8.38
2022-11-18T11:54:50.119Z,8.57
2022-11-18T11:58:00.685Z,8.95
2022-11-18T12:01:15.040Z,9.23
2022-11-18T12:04:44.803Z,8.60
2022-11-18T12:08:01.214Z,8.05
2022-11-18T12:11:16.556Z,8.20
2022-11-18T12:14:20.890Z,8.85
2022-11-18T12:17:27.795Z,7.97
2022-11-18T12:20:40.908Z,8.05
2022-11-18T12:23:42.242Z,9.23
2022-11-18T12:26:46.076Z,8.02
2022-11-18T12:29:50.479Z,9.68
2022-11-18T12:32:56.762Z,8.90
2022-11-18T12:35:58.113Z,12.23
2022-11-18T12:39:24.389Z,8.25
2022-11-18T12:42:46.740Z,7.63
2022-11-18T12:45:55.800Z,9.15
2022-11-18T12:48:59.057Z,10.07
2022-11-18T12:52:05.438Z,6.90
2022-11-18T12:55:21.675Z,7.32
2022-11-18T12:58:24.971Z,7.38
2022-11-18T13:01:29.047Z,11.52
2022-11-18T13:04:30.427Z,7.63
2022-11-18T13:07:53.663Z,7.50
2022-11-18T13:11:10.796Z,9.88
2022-11-18T13:14:19.806Z,8.35
2022-11-18T13:17:30.235Z,7.22
2022-11-18T13:20:37.257Z,7.97
2022-11-18T13:23:38.700Z,7.20
2022-11-18T13:26:42.260Z,7.85
2022-11-18T13:29:55.442Z,9.20
2022-11-18T13:32:59.020Z,9.98
2022-11-18T13:36:00.780Z,7.13
2022-11-18T13:39:06.620Z,7.68
2022-11-18T13:42:14.769Z,7.43
2022-11-18T13:45:16.197Z,7.05
2022-11-18T13:48:17.743Z,6.88
2022-11-18T13:51:20.275Z,6.25
2022-11-18T13:54:25.442Z,7.20
2022-11-18T13:57:28.893Z,6.95
2022-11-18T14:03:48.618Z,6.63
2022-11-18T14:06:50.229Z,7.70
2022-11-18T14:09:58.614Z,6.63
2022-11-18T14:13:01.258Z,5.82
2022-11-18T14:16:27.622Z,7.53
2022-11-18T14:19:31.687Z,6.53
2022-11-18T14:22:33.211Z,6.22
2022-11-18T14:25:36.307Z,6.75
2022-11-18T14:28:38.605Z,7.25
2022-11-18T14:31:40.251Z,10.43
2022-11-18T14:34:41.703Z,4.85
2022-11-18T14:37:43.056Z,6.45
2022-11-18T14:40:44.496Z,5.35
2022-11-18T14:43:45.812Z,4.63
2022-11-18T14:46:52.857Z,5.20
2022-11-18T14:49:54.199Z,4.95
2022-11-18T14:52:55.526Z,6.32
2022-11-18T14:55:58.870Z,4.55
2022-11-18T15:02:01.726Z,5.05
2022-11-18T15:05:03.205Z,6.10
2022-11-18T15:08:05.205Z,6.30
2022-11-18T15:11:06.655Z,6.15
2022-11-18T15:14:08.125Z,7.75
2022-11-18T15:17:12.217Z,5.32
2022-11-18T15:20:16.259Z,4.35
2022-11-18T15:23:17.651Z,5.80
2022-11-18T15:26:28.016Z,5.72
2022-11-18T15:29:29.363Z,6.63
2022-11-18T15:32:30.759Z,5.90
2022-11-18T15:35:32.100Z,8.35
2022-11-18T15:38:33.436Z,6.80
2022-11-18T15:41:34.896Z,6.68
2022-11-18T15:44:36.264Z,6.35
2022-11-18T15:47:37.607Z,6.78
2022-11-18T15:50:39.033Z,7.78
2022-11-18T15:53:40.517Z,6.20
2022-11-18T15:56:41.870Z,7.50
2022-11-18T15:59:43.279Z,9.50
2022-11-18T16:02:45.107Z,9.70
2022-11-18T16:05:46.761Z,6.50
2022-11-18T16:08:48.298Z,5.75
2022-11-18T16:11:49.647Z,5.57
2022-11-18T16:14:50.986Z,5.88
2022-11-18T16:17:52.325Z,7.07
2022-11-18T16:20:58.077Z,4.30
2022-11-18T16:24:01.134Z,4.88
2022-11-18T16:27:04.700Z,4.63
2022-11-18T16:30:06.533Z,6.10
2022-11-18T16:33:07.932Z,5.45
2022-11-18T16:36:09.350Z,5.63
2022-11-18T16:39:13.392Z,6.50
2022-11-18T16:42:14.746Z,5.75
2022-11-18T16:45:16.390Z,5.88
2022-11-18T16:48:17.742Z,5.28
2022-11-18T16:51:21.726Z,4.90
2022-11-18T16:54:24.844Z,5.38
2022-11-18T16:57:26.259Z,4.40
2022-11-18T17:00:50.205Z,4.38
2022-11-18T17:03:51.248Z,7.97
2022-11-18T17:06:53.884Z,7.55
2022-11-18T17:09:55.271Z,6.72
2022-11-18T17:12:56.732Z,6.10
2022-11-18T17:15:58.083Z,5.47
2022-11-18T17:19:00.323Z,4.72
2022-11-18T17:22:01.673Z,6.43
2022-11-18T17:25:05.439Z,7.53
2022-11-18T17:28:07.012Z,4.68
2022-11-18T17:31:16.223Z,7.15
2022-11-18T17:34:17.940Z,5.22
2022-11-18T17:37:19.605Z,5.70
2022-11-18T17:40:21.113Z,6.25
2022-11-18T17:43:23.224Z,6.53
2022-11-18T17:46:24.600Z,5.15
2022-11-18T17:49:25.968Z,5.93
2022-11-18T17:52:27.315Z,5.57
2022-11-18T17:55:28.656Z,5.47
2022-11-18T17:58:30.025Z,5.55
2022-11-18T18:01:31.615Z,4.47
2022-11-18T18:04:33.089Z,5.68
2022-11-18T18:07:34.663Z,4.15
2022-11-18T18:10:38.973Z,4.82
2022-11-18T18:13:41.073Z,7.55
2022-11-18T18:16:47.793Z,6.55
2022-11-18T18:19:49.140Z,7.38
2022-11-18T18:22:50.553Z,7.78
2022-11-18T18:25:51.905Z,5.38
2022-11-18T18:28:53.450Z,6.15
2022-11-18T18:31:54.827Z,5.88
2022-11-18T18:34:56.250Z,6.13
2022-11-18T18:37:57.598Z,5.68
2022-11-18T18:41:19.543Z,5.55
2022-11-18T18:44:21.124Z,5.68
2022-11-18T18:47:22.813Z,7.43
2022-11-18T18:50:29.491Z,5.18
2022-11-18T18:53:32.583Z,6.88
2022-11-18T18:56:34.038Z,4.25
2022-11-18T18:59:35.374Z,5.97
2022-11-18T19:02:36.680Z,6.22
2022-11-18T19:06:16.786Z,6.93
2022-11-18T19:09:01.907Z,6.47
2022-11-18T19:12:03.597Z,5.95
2022-11-18T19:15:05.373Z,5.82
2022-11-18T19:18:06.801Z,6.50
2022-11-18T19:21:10.547Z,5.38
2022-11-18T19:24:28.698Z,6.10
2022-11-18T19:27:33.451Z,5.53
2022-11-18T19:30:34.800Z,6.80
2022-11-18T19:33:36.292Z,5.10
2022-11-18T19:36:37.643Z,5.88
2022-11-18T19:39:39.007Z,9.77
2022-11-18T19:42:40.345Z,6.85
2022-11-18T19:45:50.375Z,6.53
2022-11-18T19:48:51.693Z,7.82
2022-11-18T19:51:53.073Z,5.65
2022-11-18T19:54:54.658Z,5.72
2022-11-18T19:57:56.009Z,5.97
2022-11-18T20:00:57.359Z,6.72
2022-11-18T20:04:00.198Z,4.40
2022-11-18T20:07:01.626Z,5.43
2022-11-18T20:10:03.228Z,5.40
2022-11-18T20:13:04.567Z,5.03
2022-11-18T20:16:08.261Z,5.25
2022-11-18T20:19:17.849Z,7.13
2022-11-18T20:22:19.237Z,5.03
2022-11-18T20:25:20.581Z,4.55
2022-11-18T20:28:21.949Z,4.57
2022-11-18T20:31:23.903Z,4.60
2022-11-18T20:34:25.369Z,4.25
2022-11-18T20:37:28.128Z,4.75
2022-11-18T20:40:29.651Z,4.40
2022-11-18T20:43:30.994Z,4.35
2022-11-18T20:46:32.359Z,4.20
2022-11-18T20:49:33.691Z,6.03
2022-11-18T20:52:35.074Z,6.15
2022-11-18T20:55:37.418Z,16.20
2022-11-18T20:58:38.939Z,6.72
2022-11-18T21:01:40.744Z,6.65
2022-11-18T21:04:42.123Z,6.65
2022-11-18T21:07:43.488Z,7.00
2022-11-18T21:10:44.847Z,6.18
2022-11-18T21:13:46.173Z,8.40
2022-11-18T21:16:47.892Z,6.45
2022-11-18T21:19:49.275Z,6.32
2022-11-18T21:22:50.619Z,7.63
2022-11-18T21:25:52.005Z,8.45
2022-11-18T21:28:55.194Z,6.00
2022-11-18T21:31:57.552Z,8.15
2022-11-18T21:34:58.916Z,8.13
2022-11-18T21:38:03.906Z,6.25
2022-11-18T21:41:06.524Z,7.55
2022-11-18T21:44:10.588Z,7.50
2022-11-18T21:47:11.937Z,6.53
2022-11-18T21:50:13.438Z,6.88
2022-11-18T21:53:14.794Z,7.40
2022-11-18T21:56:18.973Z,6.68
2022-11-18T21:59:21.469Z,8.40
2022-11-18T22:02:23.041Z,8.57
2022-11-18T22:05:24.375Z,7.85
2022-11-18T22:08:26.127Z,6.93
2022-11-18T22:11:27.906Z,7.25
2022-11-18T22:14:29.255Z,7.28
2022-11-18T22:17:30.585Z,8.00
2022-11-18T22:20:31.954Z,7.13
2022-11-18T22:23:33.778Z,7.85
2022-11-18T22:26:35.122Z,6.07
2022-11-18T22:29:36.430Z,6.38
2022-11-18T22:32:37.864Z,8.20
2022-11-18T22:35:39.247Z,7.65
2022-11-18T22:38:41.681Z,8.70
2022-11-18T22:41:43.026Z,7.03
2022-11-18T22:44:44.384Z,8.27
2022-11-18T22:47:45.740Z,10.02
2022-11-18T22:50:56.015Z,9.40
2022-11-18T22:54:22.871Z,44.65
2022-11-18T22:57:18.716Z,20.80
2022-11-18T23:00:20.051Z,8.88
2022-11-18T23:03:21.392Z,6.05
2022-11-18T23:06:22.723Z,8.82
2022-11-18T23:09:24.099Z,6.68
2022-11-18T23:12:25.421Z,9.23
2022-11-18T23:15:26.756Z,8.00
2022-11-18T23:18:28.978Z,8.00
2022-11-18T23:21:30.648Z,9.13
2022-11-18T23:24:32.025Z,8.80
2022-11-18T23:27:33.348Z,7.35
2022-11-18T23:30:34.732Z,7.55
2022-11-18T23:33:37.028Z,8.30
2022-11-18T23:36:38.393Z,10.40
2022-11-18T23:39:39.709Z,9.60
2022-11-18T23:42:41.104Z,8.80
2022-11-18T23:45:42.430Z,16.90
2022-11-18T23:48:44.666Z,16.70
2022-11-18T23:51:45.993Z,17.55
2022-11-18T23:54:47.323Z,22.80
2022-11-18T23:57:48.625Z,19.08
